Terminal Aerodrome Forecast
Issued by NWS Blacksburg, VA

Home | Current Version | Previous Version | Text Only | Print | Product List | Glossary On
Versions: 1 2 3 4 5 6 7 8 9 10 11 12 13 14 15 16 17 18 19 20 21
000
FTUS41 KRNK 291017 AAB
TAFLYH
TAF AMD
KLYH 291017Z 2910/3006 06003KT 2SM BR OVC003
     FM291600 VRB03KT P6SM OVC015
     FM291800 25005KT P6SM SCT030
     FM300000 VRB03KT P6SM BKN150=

USA.gov is the U.S. government's official web portal to all federal, state and local government web resources and services.